Time;durP1;ratioP1;P1;durP2;ratioP2;P2;SDS_P1;SDS_P2;PMS_P1;PMS_P2;Temp;Humidity;BMP_temperature;BMP_pressure;BME280_temperature;BME280_humidity;BME280_pressure;Samples;Min_cycle;Max_cycle;Signal;HPM_P1;HPM_P2
2023/06/25 00:00:54;;;;;;;4.07;3.03;;;26.50;52.80;;;;;;4954662;29;20035;-74
2023/06/25 00:03:20;;;;;;;3.83;2.78;;;26.40;52.80;;;;;;4938514;29;20043;-74
2023/06/25 00:05:45;;;;;;;3.60;2.75;;;26.40;52.80;;;;;;4954992;28;20038;-74
2023/06/25 00:08:11;;;;;;;3.97;2.95;;;26.30;52.80;;;;;;4954134;29;20027;-74
2023/06/25 00:10:37;;;;;;;3.92;3.15;;;26.40;53.00;;;;;;4938324;29;20035;-73
2023/06/25 00:13:02;;;;;;;3.65;2.85;;;26.30;52.90;;;;;;4953795;29;20126;-73
2023/06/25 00:15:28;;;;;;;3.90;2.65;;;26.30;52.90;;;;;;4956725;28;20097;-74
2023/06/25 00:17:55;;;;;;;4.25;2.97;;;26.20;52.90;;;;;;4958683;29;20451;-74
2023/06/25 00:20:22;;;;;;;4.03;3.03;;;26.20;53.00;;;;;;4941429;29;20098;-74
2023/06/25 00:22:47;;;;;;;3.83;2.83;;;26.20;53.60;;;;;;4957917;29;20023;-73
2023/06/25 00:25:15;;;;;;;4.10;2.90;;;26.20;53.00;;;;;;4957234;29;20122;-74
2023/06/25 00:27:41;;;;;;;3.88;2.85;;;26.10;53.10;;;;;;4958318;28;20043;-74
2023/06/25 00:30:07;;;;;;;4.85;3.15;;;26.10;53.10;;;;;;4957719;29;20035;-74
2023/06/25 00:32:33;;;;;;;4.68;2.97;;;26.10;53.10;;;;;;4925638;29;20432;-74
2023/06/25 00:35:01;;;;;;;3.75;2.88;;;26.00;53.10;;;;;;4957102;29;20051;-74
2023/06/25 00:37:27;;;;;;;4.20;3.08;;;26.00;53.20;;;;;;4941287;29;20043;-74
2023/06/25 00:39:53;;;;;;;3.97;2.92;;;26.00;53.20;;;;;;4958293;28;20078;-74
2023/06/25 00:42:19;;;;;;;3.92;2.75;;;26.00;53.30;;;;;;4957222;29;20046;-74
2023/06/25 00:44:44;;;;;;;4.57;3.40;;;25.90;53.20;;;;;;4958237;28;20116;-74
2023/06/25 00:47:16;;;;;;;4.60;3.38;;;25.90;53.20;;;;;;4958190;28;20035;-74
2023/06/25 00:49:46;;;;;;;3.97;3.05;;;25.90;53.30;;;;;;4941366;28;20062;-74
2023/06/25 00:52:14;;;;;;;4.18;3.30;;;25.80;53.30;;;;;;4941084;29;20042;-74
2023/06/25 00:54:42;;;;;;;4.57;3.42;;;25.80;53.30;;;;;;4958512;28;20035;-74
2023/06/25 00:57:09;;;;;;;4.05;2.90;;;25.80;53.30;;;;;;4958124;28;20038;-74
2023/06/25 00:59:38;;;;;;;4.30;3.20;;;25.70;53.30;;;;;;4941897;29;20069;-74
2023/06/25 01:02:22;;;;;;;3.55;3.05;;;25.70;53.30;;;;;;4957852;28;20086;-74
2023/06/25 01:05:02;;;;;;;3.78;2.95;;;25.70;53.40;;;;;;4957500;29;20028;-74
2023/06/25 01:07:28;;;;;;;4.50;3.25;;;25.70;53.40;;;;;;4957536;28;20039;-73
2023/06/25 01:09:55;;;;;;;4.22;3.10;;;25.60;53.90;;;;;;4958068;28;20027;-74
2023/06/25 01:12:21;;;;;;;4.18;3.17;;;25.60;53.40;;;;;;4956817;29;20122;-73
2023/06/25 01:14:48;;;;;;;4.40;3.30;;;25.60;53.40;;;;;;4956715;28;20070;-73
2023/06/25 01:17:15;;;;;;;3.88;3.10;;;25.60;53.40;;;;;;4957764;28;20045;-74
2023/06/25 01:19:40;;;;;;;3.88;3.17;;;25.50;53.40;;;;;;4958164;29;20046;-73
2023/06/25 01:22:07;;;;;;;4.30;3.22;;;25.50;53.40;;;;;;4957084;29;20040;-74
2023/06/25 01:24:34;;;;;;;4.38;3.25;;;25.50;53.50;;;;;;4956563;29;20035;-73
2023/06/25 01:27:00;;;;;;;4.07;3.20;;;25.50;53.50;;;;;;4956434;28;20034;-75
2023/06/25 01:29:28;;;;;;;4.40;3.28;;;25.40;53.50;;;;;;4957425;28;20069;-74
2023/06/25 01:31:54;;;;;;;4.40;3.25;;;25.40;53.50;;;;;;4940098;29;20027;-74
2023/06/25 01:34:21;;;;;;;4.47;3.42;;;25.40;53.60;;;;;;4955765;29;20051;-74
2023/06/25 01:36:51;;;;;;;4.30;3.13;;;25.40;53.60;;;;;;4956204;28;20094;-75
2023/06/25 01:39:21;;;;;;;4.25;2.95;;;25.40;53.70;;;;;;4940870;29;20042;-74
2023/06/25 01:41:48;;;;;;;4.63;3.58;;;25.30;53.70;;;;;;4955976;28;20062;-73
2023/06/25 01:44:25;;;;;;;4.53;3.40;;;25.30;53.70;;;;;;4957169;29;20480;-74
2023/06/25 01:46:51;;;;;;;4.20;3.22;;;25.30;53.70;;;;;;4956002;29;20039;-74
2023/06/25 01:49:17;;;;;;;4.70;3.53;;;25.30;53.80;;;;;;4956493;29;20039;-73
2023/06/25 01:51:43;;;;;;;4.15;3.33;;;25.20;53.70;;;;;;4955732;29;20086;-74
2023/06/25 01:54:08;;;;;;;4.25;3.05;;;25.20;53.70;;;;;;4955742;29;20475;-75
2023/06/25 01:56:34;;;;;;;4.28;3.15;;;25.20;53.80;;;;;;4956848;28;20040;-73
2023/06/25 01:59:00;;;;;;;4.70;3.35;;;25.10;53.80;;;;;;4955245;29;20028;-74
2023/06/25 02:01:26;;;;;;;5.18;3.67;;;25.10;53.90;;;;;;4955607;29;20027;-73
2023/06/25 02:03:51;;;;;;;4.25;3.33;;;25.10;53.90;;;;;;4955599;29;20031;-73
2023/06/25 02:06:17;;;;;;;4.20;3.15;;;25.10;53.90;;;;;;4940123;29;20039;-74
2023/06/25 02:08:43;;;;;;;4.40;3.20;;;25.10;54.00;;;;;;4955399;29;20058;-73
2023/06/25 02:11:09;;;;;;;4.95;3.30;;;25.10;54.00;;;;;;4955290;29;20034;-74
2023/06/25 02:13:37;;;;;;;4.50;3.40;;;25.00;54.00;;;;;;4940320;29;20114;-74
2023/06/25 02:16:03;;;;;;;4.40;3.15;;;25.10;54.10;;;;;;4939887;28;20251;-74
2023/06/25 02:18:30;;;;;;;4.38;3.30;;;25.00;54.10;;;;;;4955482;29;20039;-74
2023/06/25 02:20:56;;;;;;;4.88;3.50;;;25.00;54.20;;;;;;4955451;28;20046;-75
2023/06/25 02:23:22;;;;;;;4.18;3.33;;;24.90;54.20;;;;;;4955359;29;20036;-74
2023/06/25 02:25:49;;;;;;;4.35;3.33;;;24.90;54.20;;;;;;4956640;28;20037;-73
2023/06/25 02:28:15;;;;;;;4.45;3.35;;;24.90;54.30;;;;;;4956529;28;20040;-72
2023/06/25 02:30:41;;;;;;;4.57;3.25;;;24.90;54.30;;;;;;4939496;29;20041;-74
2023/06/25 02:33:07;;;;;;;4.43;3.45;;;24.80;54.30;;;;;;4939222;28;20476;-74
2023/06/25 02:35:33;;;;;;;4.10;3.40;;;24.80;54.30;;;;;;4955113;29;20054;-73
2023/06/25 02:37:59;;;;;;;5.38;3.38;;;24.80;54.40;;;;;;4954418;28;20116;-74
2023/06/25 02:40:27;;;;;;;4.68;3.55;;;24.80;54.40;;;;;;4955231;29;20472;-74
2023/06/25 02:42:53;;;;;;;4.80;3.53;;;24.80;54.50;;;;;;4940146;28;20371;-74
2023/06/25 02:45:19;;;;;;;5.45;3.38;;;24.80;54.50;;;;;;4924131;29;20082;-74
2023/06/25 02:47:45;;;;;;;4.78;3.58;;;24.70;54.50;;;;;;4938917;29;20480;-73
2023/06/25 02:50:11;;;;;;;3.85;3.03;;;24.70;54.60;;;;;;4954585;28;20043;-74
2023/06/25 02:52:37;;;;;;;4.40;3.50;;;24.70;54.70;;;;;;4954896;29;20035;-73
2023/06/25 02:55:03;;;;;;;4.70;3.30;;;24.60;54.60;;;;;;4938643;29;20058;-74
2023/06/25 02:57:29;;;;;;;3.75;3.10;;;24.60;54.70;;;;;;4955055;29;20038;-74
2023/06/25 02:59:57;;;;;;;4.22;3.20;;;24.60;54.70;;;;;;4954543;29;20035;-74
2023/06/25 03:02:23;;;;;;;4.80;3.60;;;24.60;54.80;;;;;;4938957;29;20047;-74
2023/06/25 03:04:49;;;;;;;5.10;3.85;;;24.60;54.80;;;;;;4938508;29;20032;-74
2023/06/25 03:07:14;;;;;;;4.70;3.40;;;24.60;54.90;;;;;;4938615;29;20464;-74
2023/06/25 03:09:41;;;;;;;4.65;3.40;;;24.50;54.90;;;;;;4954462;28;20039;-74
2023/06/25 03:12:08;;;;;;;5.35;3.25;;;24.50;54.90;;;;;;4954482;29;20033;-74
2023/06/25 03:14:36;;;;;;;5.03;3.58;;;24.50;54.90;;;;;;4955069;29;20054;-74
2023/06/25 03:17:04;;;;;;;4.57;3.33;;;24.50;55.00;;;;;;4938339;29;20031;-74
2023/06/25 03:19:30;;;;;;;4.55;3.08;;;24.40;55.00;;;;;;4938276;29;20046;-73
2023/06/25 03:21:56;;;;;;;4.45;3.20;;;24.40;55.10;;;;;;4938237;29;20037;-75
2023/06/25 03:24:22;;;;;;;4.38;3.28;;;24.40;55.20;;;;;;4938371;28;20467;-74
2023/06/25 03:26:50;;;;;;;4.53;3.55;;;24.40;55.20;;;;;;4954022;29;20034;-73
2023/06/25 03:29:17;;;;;;;4.63;3.50;;;24.40;55.30;;;;;;4938472;29;20119;-74
2023/06/25 03:31:43;;;;;;;4.45;3.35;;;24.40;55.30;;;;;;4938566;29;20035;-74
2023/06/25 03:34:12;;;;;;;4.65;3.80;;;24.30;55.30;;;;;;4938258;29;20062;-73
2023/06/25 03:36:37;;;;;;;4.97;3.72;;;24.30;55.40;;;;;;4953959;29;20035;-73
2023/06/25 03:39:03;;;;;;;5.18;3.75;;;24.30;55.50;;;;;;4938073;29;20122;-74
2023/06/25 03:41:29;;;;;;;5.35;3.78;;;24.30;55.50;;;;;;4954017;29;20035;-74
2023/06/25 03:43:55;;;;;;;4.70;3.50;;;24.20;55.60;;;;;;4954149;29;20130;-75
2023/06/25 03:46:21;;;;;;;4.88;3.67;;;24.20;55.60;;;;;;4954126;28;20484;-73
2023/06/25 03:48:48;;;;;;;4.90;3.85;;;24.20;55.60;;;;;;4954166;28;20119;-75
2023/06/25 03:51:14;;;;;;;5.00;3.95;;;24.20;55.70;;;;;;4959631;28;20126;-74
2023/06/25 03:53:41;;;;;;;5.05;3.65;;;24.20;55.70;;;;;;4958606;29;20038;-74
2023/06/25 03:56:07;;;;;;;4.50;3.30;;;24.10;55.70;;;;;;4959026;28;20118;-74
2023/06/25 03:58:36;;;;;;;4.95;3.65;;;24.10;55.80;;;;;;4957742;29;20050;-73
2023/06/25 04:01:03;;;;;;;5.47;3.72;;;24.10;55.90;;;;;;4957853;28;20023;-73
2023/06/25 04:03:28;;;;;;;5.20;3.90;;;24.10;55.90;;;;;;4958218;28;20034;-74
2023/06/25 04:05:54;;;;;;;4.28;3.33;;;24.00;55.90;;;;;;4957866;29;20093;-74
2023/06/25 04:08:20;;;;;;;5.40;3.85;;;24.00;55.90;;;;;;4958695;29;20516;-74
2023/06/25 04:10:46;;;;;;;5.07;3.78;;;24.00;55.90;;;;;;4958494;28;20114;-73
2023/06/25 04:13:11;;;;;;;5.10;3.78;;;24.00;55.90;;;;;;4941858;28;20032;-74
2023/06/25 04:15:38;;;;;;;5.40;4.15;;;24.00;55.90;;;;;;4941517;29;20175;-73
2023/06/25 04:18:03;;;;;;;5.50;4.35;;;24.00;55.90;;;;;;4942460;29;20134;-74
2023/06/25 04:20:29;;;;;;;5.03;3.80;;;23.90;55.90;;;;;;4941712;29;20484;-74
2023/06/25 04:22:56;;;;;;;4.88;3.92;;;23.90;56.00;;;;;;4942497;29;20035;-73
2023/06/25 04:25:22;;;;;;;5.05;3.92;;;23.90;56.00;;;;;;4941349;29;20488;-74
2023/06/25 04:27:49;;;;;;;4.95;3.58;;;23.80;56.00;;;;;;4942319;29;20118;-73
2023/06/25 04:30:15;;;;;;;5.07;3.78;;;23.80;56.00;;;;;;4957664;29;20031;-74
2023/06/25 04:32:41;;;;;;;5.30;4.05;;;23.80;56.10;;;;;;4941068;29;20041;-74
2023/06/25 04:35:07;;;;;;;5.20;3.78;;;23.80;56.10;;;;;;4941008;29;20051;-74
2023/06/25 04:37:35;;;;;;;5.35;4.03;;;23.80;56.10;;;;;;4957456;29;20066;-73
2023/06/25 04:40:05;;;;;;;5.18;3.97;;;23.80;56.10;;;;;;4940910;29;20075;-73
2023/06/25 04:42:31;;;;;;;4.97;3.80;;;23.80;56.10;;;;;;4957666;29;20041;-74
2023/06/25 04:44:56;;;;;;;5.00;3.78;;;23.80;56.10;;;;;;4957742;29;20062;-73
2023/06/25 04:47:22;;;;;;;5.05;3.88;;;23.70;56.10;;;;;;4958645;29;20031;-73
2023/06/25 04:49:48;;;;;;;4.80;3.50;;;23.70;56.10;;;;;;4956825;29;20448;-75
2023/06/25 04:52:18;;;;;;;4.65;3.88;;;23.70;56.10;;;;;;4956839;29;20035;-74
2023/06/25 04:54:45;;;;;;;4.88;3.72;;;23.70;56.10;;;;;;4957924;28;20110;-73
2023/06/25 04:57:11;;;;;;;5.43;3.92;;;23.70;56.20;;;;;;4956605;29;20437;-73
2023/06/25 04:59:37;;;;;;;5.75;3.90;;;23.70;56.20;;;;;;4957754;28;20043;-74
2023/06/25 05:02:03;;;;;;;5.30;4.20;;;23.70;56.10;;;;;;4957284;28;20066;-74
2023/06/25 05:04:29;;;;;;;5.05;3.92;;;23.70;56.20;;;;;;4957649;28;20411;-74
2023/06/25 05:06:55;;;;;;;5.32;4.00;;;23.60;56.20;;;;;;4958067;28;20035;-74
2023/06/25 05:09:21;;;;;;;5.13;3.60;;;23.60;56.20;;;;;;4956533;28;20043;-74
2023/06/25 05:11:47;;;;;;;4.82;3.67;;;23.60;56.20;;;;;;4957743;28;20046;-73
2023/06/25 05:14:12;;;;;;;4.90;3.55;;;23.60;56.20;;;;;;4940239;29;20035;-74
2023/06/25 05:16:38;;;;;;;5.15;3.75;;;23.60;56.20;;;;;;4957621;28;20038;-74
2023/06/25 05:19:04;;;;;;;5.75;4.05;;;23.60;56.20;;;;;;4957310;28;20038;-74
2023/06/25 05:21:30;;;;;;;4.93;3.85;;;23.60;56.30;;;;;;4956331;29;20042;-74
2023/06/25 05:24:03;;;;;;;4.50;3.33;;;23.60;56.30;;;;;;4957240;29;20042;-75
2023/06/25 05:26:29;;;;;;;4.85;3.80;;;23.60;56.30;;;;;;4956991;29;20039;-74
2023/06/25 05:28:56;;;;;;;4.95;3.50;;;23.60;56.30;;;;;;4957542;28;20035;-74
2023/06/25 05:31:22;;;;;;;4.90;3.78;;;23.60;56.30;;;;;;4957070;29;20035;-74
2023/06/25 05:33:47;;;;;;;5.25;3.67;;;23.60;56.30;;;;;;4957220;28;20055;-74
2023/06/25 05:36:14;;;;;;;4.30;3.50;;;23.60;56.30;;;;;;4956002;29;20498;-74
2023/06/25 05:38:40;;;;;;;4.88;3.83;;;23.60;56.30;;;;;;4957255;29;20031;-74
2023/06/25 05:41:05;;;;;;;4.95;3.75;;;23.60;56.30;;;;;;4955948;29;20483;-74
2023/06/25 05:43:31;;;;;;;5.60;3.90;;;23.60;56.30;;;;;;4956829;29;20059;-74
2023/06/25 05:45:57;;;;;;;4.90;3.60;;;23.60;56.30;;;;;;4939818;29;20085;-74
2023/06/25 05:48:22;;;;;;;5.18;3.78;;;23.60;56.30;;;;;;4955665;29;20036;-74
2023/06/25 05:50:48;;;;;;;4.72;3.72;;;23.60;56.30;;;;;;4955853;29;20039;-74
2023/06/25 05:53:14;;;;;;;4.85;3.75;;;23.60;56.30;;;;;;4940135;28;20372;-75
2023/06/25 05:55:40;;;;;;;4.80;3.80;;;23.60;56.40;;;;;;4956550;28;20035;-75
2023/06/25 05:58:05;;;;;;;5.45;3.67;;;23.60;56.40;;;;;;4955942;29;20038;-72
2023/06/25 06:00:31;;;;;;;4.97;3.58;;;23.60;56.40;;;;;;4940035;29;20031;-73
2023/06/25 06:02:57;;;;;;;5.30;3.65;;;23.60;56.30;;;;;;4956843;28;20041;-72
2023/06/25 06:05:22;;;;;;;4.72;3.58;;;23.60;56.30;;;;;;4956398;29;20456;-73
2023/06/25 06:07:48;;;;;;;4.53;3.53;;;23.70;56.30;;;;;;4955820;29;20031;-76
2023/06/25 06:10:15;;;;;;;4.57;3.60;;;23.70;56.90;;;;;;4939588;29;20032;-71
2023/06/25 06:12:41;;;;;;;5.00;3.95;;;23.60;56.30;;;;;;4955399;28;20126;-73
2023/06/25 06:15:08;;;;;;;4.40;3.33;;;23.70;56.30;;;;;;4955718;28;20038;-73
2023/06/25 06:17:33;;;;;;;4.70;3.25;;;23.70;56.30;;;;;;4956299;28;20035;-74
2023/06/25 06:19:59;;;;;;;5.93;3.90;;;23.70;56.30;;;;;;4955503;28;20031;-73
2023/06/25 06:22:25;;;;;;;4.55;3.47;;;23.70;56.30;;;;;;4955655;29;20031;-73
2023/06/25 06:24:51;;;;;;;4.55;3.60;;;23.70;56.30;;;;;;4939414;29;20392;-75
2023/06/25 06:27:17;;;;;;;4.80;3.80;;;23.70;56.30;;;;;;4957005;28;20435;-78
2023/06/25 06:29:42;;;;;;;4.68;3.70;;;23.80;56.40;;;;;;4956051;28;20042;-73
2023/06/25 06:32:09;;;;;;;5.38;4.00;;;23.70;56.40;;;;;;4939405;28;20047;-73
2023/06/25 06:34:36;;;;;;;5.43;3.55;;;23.80;56.50;;;;;;4955086;29;20059;-72
2023/06/25 06:37:02;;;;;;;5.45;3.55;;;23.70;56.40;;;;;;4954860;29;20082;-72
2023/06/25 06:39:28;;;;;;;5.05;3.85;;;23.80;56.50;;;;;;4954967;29;20046;-73
2023/06/25 06:41:54;;;;;;;4.70;3.70;;;23.80;56.50;;;;;;4955153;29;20039;-73
2023/06/25 06:44:23;;;;;;;5.65;3.83;;;23.80;56.50;;;;;;4939566;29;20058;-73
2023/06/25 06:46:49;;;;;;;5.38;3.83;;;23.80;56.50;;;;;;4955675;29;20179;-74
2023/06/25 06:49:17;;;;;;;4.90;3.90;;;23.80;56.50;;;;;;4955784;29;20083;-73
2023/06/25 06:51:43;;;;;;;4.60;3.50;;;23.80;56.50;;;;;;4954794;29;20189;-73
2023/06/25 06:54:09;;;;;;;5.03;3.80;;;23.80;56.50;;;;;;4955853;28;20032;-72
2023/06/25 06:56:35;;;;;;;4.72;3.58;;;23.80;56.50;;;;;;4954583;29;20038;-73
2023/06/25 06:59:01;;;;;;;5.18;3.60;;;23.90;56.50;;;;;;4956126;28;20048;-72
2023/06/25 07:01:26;;;;;;;5.60;3.95;;;23.90;56.50;;;;;;4954669;29;20111;-73
2023/06/25 07:03:52;;;;;;;5.22;3.97;;;23.90;56.50;;;;;;4955895;28;20086;-72
2023/06/25 07:06:19;;;;;;;5.43;4.00;;;23.90;56.50;;;;;;4956273;28;20034;-73
2023/06/25 07:08:44;;;;;;;5.45;3.78;;;23.90;56.60;;;;;;4954225;29;20031;-72
2023/06/25 07:11:10;;;;;;;5.25;3.58;;;24.00;56.60;;;;;;4954218;29;20539;-72
2023/06/25 07:13:36;;;;;;;5.70;4.22;;;24.00;56.60;;;;;;4938809;28;20042;-73
2023/06/25 07:16:02;;;;;;;5.03;3.47;;;24.00;56.60;;;;;;4955569;28;20384;-73
2023/06/25 07:18:27;;;;;;;4.82;3.72;;;24.00;56.60;;;;;;4955916;28;20070;-74
2023/06/25 07:20:53;;;;;;;5.78;3.95;;;24.00;56.60;;;;;;4955512;28;20130;-73
2023/06/25 07:23:19;;;;;;;5.20;3.75;;;24.00;56.50;;;;;;4955128;29;20046;-72
2023/06/25 07:25:45;;;;;;;5.07;3.83;;;24.10;56.60;;;;;;4954396;28;20047;-72
2023/06/25 07:28:10;;;;;;;4.90;3.40;;;24.10;56.50;;;;;;4954311;29;20035;-72
2023/06/25 07:30:37;;;;;;;5.10;3.80;;;24.10;56.50;;;;;;4955389;28;20031;-72
2023/06/25 07:33:03;;;;;;;4.57;3.60;;;24.20;56.50;;;;;;4956348;28;20486;-73
2023/06/25 07:35:29;;;;;;;4.95;3.40;;;24.20;56.50;;;;;;4954242;29;20047;-72
2023/06/25 07:37:54;;;;;;;5.50;3.88;;;24.30;56.40;;;;;;4953885;29;20070;-73
2023/06/25 07:40:20;;;;;;;4.65;3.58;;;24.30;56.40;;;;;;4955269;28;20103;-74
2023/06/25 07:42:46;;;;;;;4.80;3.35;;;24.40;56.30;;;;;;4955342;28;20028;-72
2023/06/25 07:45:12;;;;;;;4.68;3.58;;;24.50;56.20;;;;;;4953767;29;20039;-75
2023/06/25 07:47:37;;;;;;;5.38;3.70;;;24.50;56.10;;;;;;4938655;28;20058;-72
2023/06/25 07:50:04;;;;;;;4.40;3.33;;;24.60;56.10;;;;;;4954944;28;20528;-72
2023/06/25 07:52:30;;;;;;;4.63;3.58;;;24.60;56.00;;;;;;4938896;29;20031;-72
2023/06/25 07:54:55;;;;;;;5.03;3.45;;;24.70;55.90;;;;;;4938236;29;20500;-72
2023/06/25 07:57:21;;;;;;;5.07;3.58;;;24.80;55.90;;;;;;4938264;29;20039;-72
2023/06/25 07:59:47;;;;;;;5.13;3.72;;;24.90;55.80;;;;;;4938160;29;20463;-72
2023/06/25 08:02:13;;;;;;;4.35;3.47;;;24.90;55.80;;;;;;4938297;29;20158;-72
2023/06/25 08:04:39;;;;;;;4.07;3.53;;;25.00;55.70;;;;;;4937902;29;20063;-73
2023/06/25 08:07:04;;;;;;;4.90;3.55;;;25.10;55.70;;;;;;4954899;28;20515;-73
2023/06/25 08:09:31;;;;;;;4.78;3.58;;;25.10;55.70;;;;;;4938477;28;20035;-72
2023/06/25 08:11:57;;;;;;;3.95;3.10;;;25.20;55.70;;;;;;4954585;29;20046;-73
2023/06/25 08:14:23;;;;;;;4.45;3.42;;;25.30;55.70;;;;;;4954629;28;20114;-72
2023/06/25 08:16:49;;;;;;;4.32;3.13;;;25.40;55.70;;;;;;4953274;29;20063;-74
2023/06/25 08:19:15;;;;;;;5.20;3.83;;;25.50;55.60;;;;;;4954138;29;20046;-73
2023/06/25 08:21:40;;;;;;;3.92;2.92;;;25.50;55.40;;;;;;4954512;28;20444;-73
2023/06/25 08:24:06;;;;;;;4.90;3.38;;;25.70;55.40;;;;;;4938500;29;20058;-72
2023/06/25 08:26:32;;;;;;;4.90;3.42;;;25.70;55.30;;;;;;4955547;28;20472;-72
2023/06/25 08:28:58;;;;;;;4.57;3.25;;;25.80;55.20;;;;;;4953618;29;20086;-72
2023/06/25 08:31:24;;;;;;;4.28;3.45;;;25.90;55.20;;;;;;4937963;29;20392;-73
2023/06/25 08:33:49;;;;;;;3.83;3.03;;;26.00;55.20;;;;;;4953058;29;20389;-72
2023/06/25 08:36:15;;;;;;;4.47;3.25;;;26.10;55.20;;;;;;4955450;28;20085;-72
2023/06/25 08:38:41;;;;;;;4.72;3.45;;;26.20;55.20;;;;;;4958721;28;20043;-73
2023/06/25 08:41:07;;;;;;;4.40;3.20;;;26.30;55.20;;;;;;4940939;29;20120;-72
2023/06/25 08:43:33;;;;;;;4.65;3.30;;;26.40;55.20;;;;;;4958293;28;20039;-72
2023/06/25 08:45:58;;;;;;;4.55;3.38;;;26.50;55.20;;;;;;4959009;28;20039;-72
2023/06/25 08:48:29;;;;;;;4.47;3.35;;;26.60;55.20;;;;;;4941345;29;20631;-72
2023/06/25 08:50:57;;;;;;;3.95;2.92;;;26.60;55.20;;;;;;4957554;29;20035;-72
2023/06/25 08:53:30;;;;;;;4.25;3.25;;;26.70;55.20;;;;;;4958665;28;20580;-72
2023/06/25 08:55:57;;;;;;;4.10;3.03;;;26.80;55.20;;;;;;4958126;28;20028;-71
2023/06/25 08:58:24;;;;;;;5.10;3.60;;;26.90;55.10;;;;;;4957042;28;20039;-72
2023/06/25 09:00:50;;;;;;;4.13;2.90;;;27.00;55.10;;;;;;4957018;29;20035;-72
2023/06/25 09:03:16;;;;;;;4.15;2.80;;;27.10;55.20;;;;;;4957223;28;20468;-72
2023/06/25 09:05:52;;;;;;;4.10;2.83;;;27.20;55.20;;;;;;4958078;28;20038;-72
2023/06/25 09:08:17;;;;;;;4.10;2.75;;;27.30;55.30;;;;;;4957208;29;20039;-72
2023/06/25 09:10:49;;;;;;;4.10;3.10;;;27.40;55.20;;;;;;4957526;29;20086;-72
2023/06/25 09:13:24;;;;;;;4.28;3.08;;;27.50;55.30;;;;;;4957810;29;20035;-72
2023/06/25 09:15:50;;;;;;;4.07;2.72;;;27.60;55.40;;;;;;4957683;29;20090;-72
2023/06/25 09:18:22;;;;;;;4.03;2.90;;;27.80;55.40;;;;;;4957830;28;20036;-72
2023/06/25 09:20:49;;;;;;;3.70;2.75;;;27.80;55.50;;;;;;4957875;29;20047;-73
2023/06/25 09:23:23;;;;;;;3.67;2.90;;;27.90;55.40;;;;;;4957621;28;20036;-73
2023/06/25 09:25:50;;;;;;;4.53;3.03;;;28.00;55.60;;;;;;4957508;28;20090;-72
2023/06/25 09:28:16;;;;;;;4.20;2.67;;;28.10;55.50;;;;;;4957516;28;20035;-73
2023/06/25 09:30:42;;;;;;;4.40;2.67;;;28.10;55.50;;;;;;4956416;29;20150;-72
2023/06/25 09:33:10;;;;;;;3.22;2.30;;;28.30;55.60;;;;;;4956192;29;20483;-72
2023/06/25 09:35:36;;;;;;;3.40;2.42;;;28.40;55.60;;;;;;4958259;28;20047;-72
2023/06/25 09:38:02;;;;;;;4.13;2.92;;;28.50;55.50;;;;;;4957308;28;20035;-72
2023/06/25 09:40:28;;;;;;;3.85;2.70;;;28.60;55.40;;;;;;4956990;28;20035;-72
2023/06/25 09:42:56;;;;;;;3.30;2.53;;;28.70;55.40;;;;;;4957293;28;20178;-78
2023/06/25 09:45:23;;;;;;;3.63;2.72;;;28.70;55.40;;;;;;4956295;29;20480;-75
2023/06/25 09:47:50;;;;;;;3.55;2.70;;;28.80;55.30;;;;;;4957181;28;20118;-78
2023/06/25 09:50:17;;;;;;;3.60;2.40;;;28.90;55.20;;;;;;4956890;28;20059;-74
2023/06/25 09:52:50;;;;;;;2.78;2.17;;;29.00;55.20;;;;;;4956025;29;20094;-79
2023/06/25 09:55:17;;;;;;;3.70;2.58;;;29.10;55.30;;;;;;4940695;29;20031;-75
2023/06/25 09:57:43;;;;;;;3.45;2.42;;;29.20;55.20;;;;;;4956955;28;20043;-75
2023/06/25 10:00:12;;;;;;;3.03;2.45;;;29.30;55.20;;;;;;4956931;28;20035;-76
2023/06/25 10:02:39;;;;;;;3.72;2.78;;;29.40;55.10;;;;;;4957269;29;20039;-75
2023/06/25 10:05:05;;;;;;;4.53;2.47;;;29.50;55.00;;;;;;4955641;29;20555;-75
2023/06/25 10:07:31;;;;;;;3.10;2.50;;;29.60;55.00;;;;;;4956426;28;20031;-75
2023/06/25 10:09:56;;;;;;;3.10;2.50;;;29.70;55.00;;;;;;4955667;29;20491;-76
2023/06/25 10:12:22;;;;;;;3.22;2.55;;;29.70;54.70;;;;;;4939741;29;20098;-75
2023/06/25 10:14:48;;;;;;;3.22;2.47;;;29.90;54.80;;;;;;4956982;28;20035;-75
2023/06/25 10:17:14;;;;;;;2.80;2.38;;;29.90;54.70;;;;;;4956699;28;20047;-75
2023/06/25 10:19:52;;;;;;;2.67;2.30;;;30.00;54.50;;;;;;4939463;29;20463;-75
2023/06/25 10:22:25;;;;;;;3.55;2.53;;;30.10;54.50;;;;;;4939141;29;20042;-75
2023/06/25 10:24:52;;;;;;;3.17;2.13;;;30.20;54.40;;;;;;4955761;29;20063;-75
2023/06/25 10:27:24;;;;;;;3.50;2.45;;;30.30;54.30;;;;;;4955094;29;20321;-76
2023/06/25 10:29:51;;;;;;;3.60;2.38;;;30.40;54.30;;;;;;4954921;29;20062;-76
2023/06/25 10:32:23;;;;;;;3.22;2.28;;;30.40;54.10;;;;;;4939777;28;20361;-76
2023/06/25 10:34:54;;;;;;;3.00;2.40;;;30.60;54.10;;;;;;4956748;28;20098;-75
2023/06/25 10:37:20;;;;;;;2.83;2.03;;;30.70;54.20;;;;;;4955048;29;20090;-76
2023/06/25 10:39:46;;;;;;;2.85;2.25;;;30.70;54.00;;;;;;4938977;29;20035;-75
2023/06/25 10:42:13;;;;;;;3.17;2.50;;;30.80;53.90;;;;;;4955960;28;20031;-75
2023/06/25 10:44:39;;;;;;;3.58;2.60;;;30.90;53.90;;;;;;4955204;29;20054;-75
2023/06/25 10:47:09;;;;;;;3.30;2.67;;;31.00;53.90;;;;;;4956343;29;20472;-75
2023/06/25 10:49:36;;;;;;;3.45;2.50;;;31.10;54.00;;;;;;4956010;28;20015;-74
2023/06/25 10:52:04;;;;;;;3.88;2.63;;;31.10;54.00;;;;;;4939103;29;20118;-74
2023/06/25 10:54:32;;;;;;;3.15;2.45;;;31.20;53.90;;;;;;4956419;28;20031;-75
2023/06/25 10:57:08;;;;;;;3.38;2.72;;;31.30;54.00;;;;;;4955584;28;20409;-75
2023/06/25 10:59:34;;;;;;;3.08;2.53;;;31.40;54.10;;;;;;4955201;28;20091;-75
2023/06/25 11:02:13;;;;;;;3.45;2.65;;;31.50;54.00;;;;;;4939597;29;20035;-75
2023/06/25 11:04:39;;;;;;;3.33;2.60;;;31.50;54.10;;;;;;4956304;28;20031;-75
2023/06/25 11:07:05;;;;;;;3.10;2.58;;;31.60;54.20;;;;;;4938539;29;20090;-75
2023/06/25 11:09:31;;;;;;;3.53;2.55;;;31.60;54.10;;;;;;4955117;29;20043;-75
2023/06/25 11:11:57;;;;;;;4.10;2.42;;;31.70;54.30;;;;;;4938482;29;20050;-75
2023/06/25 11:14:23;;;;;;;3.45;2.70;;;31.70;54.40;;;;;;4954272;29;20127;-75
2023/06/25 11:16:49;;;;;;;3.13;2.50;;;31.80;54.50;;;;;;4938764;29;20098;-76
2023/06/25 11:19:15;;;;;;;3.20;2.47;;;31.80;54.40;;;;;;4938359;29;20043;-75
2023/06/25 11:21:41;;;;;;;3.22;2.60;;;31.80;54.60;;;;;;4954261;29;20023;-75
2023/06/25 11:24:10;;;;;;;3.00;2.35;;;31.90;54.80;;;;;;4939297;29;20035;-75
2023/06/25 11:26:43;;;;;;;2.92;2.30;;;31.90;54.90;;;;;;4954393;29;20043;-74
2023/06/25 11:29:10;;;;;;;2.85;2.55;;;32.00;55.00;;;;;;4938515;29;20045;-75
2023/06/25 11:31:52;;;;;;;3.33;2.60;;;32.00;55.10;;;;;;4954243;29;20031;-74
2023/06/25 11:34:25;;;;;;;2.67;1.95;;;32.00;55.30;;;;;;4955253;28;20121;-71
2023/06/25 11:36:51;;;;;;;5.03;2.90;;;32.00;54.60;;;;;;4955154;28;20043;-72
2023/06/25 11:39:17;;;;;;;3.40;2.50;;;32.00;53.70;;;;;;4954199;29;20059;-73
2023/06/25 11:41:44;;;;;;;4.60;3.00;;;32.00;53.00;;;;;;4954124;29;20027;-72
2023/06/25 11:44:19;;;;;;;3.85;2.88;;;32.00;52.70;;;;;;4938402;29;20118;-72
2023/06/25 11:46:52;;;;;;;3.97;2.80;;;31.90;52.00;;;;;;4955616;28;20038;-72
2023/06/25 11:49:18;;;;;;;3.38;2.70;;;31.90;51.60;;;;;;4954023;28;20125;-72
2023/06/25 11:51:45;;;;;;;3.22;2.63;;;31.90;51.40;;;;;;4955552;28;20035;-72
2023/06/25 11:54:11;;;;;;;3.95;2.97;;;31.90;50.90;;;;;;4955011;28;20480;-72
2023/06/25 11:56:37;;;;;;;3.88;2.85;;;31.90;50.40;;;;;;4955013;28;20170;-72
2023/06/25 11:59:03;;;;;;;3.45;2.72;;;31.90;50.30;;;;;;4953882;29;20498;-72
2023/06/25 12:01:32;;;;;;;3.28;2.60;;;31.90;50.20;;;;;;4954915;28;20035;-72
2023/06/25 12:03:57;;;;;;;3.38;2.50;;;31.90;49.90;;;;;;4955490;28;20553;-72
2023/06/25 12:06:25;;;;;;;4.55;2.90;;;31.90;49.60;;;;;;4955408;28;20072;-73
2023/06/25 12:08:51;;;;;;;3.33;2.67;;;31.80;49.30;;;;;;4955925;28;20035;-72
2023/06/25 12:11:17;;;;;;;3.33;2.40;;;31.80;49.20;;;;;;4938958;29;20082;-72
2023/06/25 12:13:43;;;;;;;4.18;2.92;;;31.80;49.00;;;;;;4959233;29;20072;-73
2023/06/25 12:16:09;;;;;;;4.53;2.97;;;31.80;49.00;;;;;;4941632;29;20122;-71
2023/06/25 12:18:35;;;;;;;3.55;2.50;;;31.80;48.60;;;;;;4958417;28;20031;-72
2023/06/25 12:21:01;;;;;;;3.90;2.90;;;31.80;48.50;;;;;;4957813;29;20038;-72
2023/06/25 12:23:26;;;;;;;4.55;3.22;;;31.80;48.40;;;;;;4958543;28;20039;-71
2023/06/25 12:25:52;;;;;;;4.00;3.10;;;31.80;48.00;;;;;;4957433;29;20038;-72
2023/06/25 12:28:18;;;;;;;4.22;2.90;;;31.80;47.90;;;;;;4958433;28;20043;-72
2023/06/25 12:30:44;;;;;;;3.55;2.90;;;31.80;47.80;;;;;;4942012;29;20029;-72
2023/06/25 12:33:09;;;;;;;3.92;2.90;;;31.80;47.90;;;;;;4957770;29;20066;-70
2023/06/25 12:35:35;;;;;;;3.65;2.65;;;31.80;48.00;;;;;;4956851;29;20440;-72
2023/06/25 12:38:01;;;;;;;3.97;2.97;;;31.80;48.00;;;;;;4958220;28;20035;-71
2023/06/25 12:40:27;;;;;;;3.38;2.72;;;31.80;48.10;;;;;;4957631;29;20106;-71
2023/06/25 12:42:56;;;;;;;3.30;2.53;;;31.80;48.10;;;;;;4959113;28;20055;-71
2023/06/25 12:45:22;;;;;;;3.97;2.97;;;31.80;48.10;;;;;;4958283;29;20090;-70